»·PEaware :: DAL2282 KSLC-KPDX

DAL2282 :: KSLC-KPDX

FLIGHT INFORMATION

Flight Status: Arrived
Operator:
Delta Air Lines
More flights by this operator :: More flights under this callsign
Pilot: Joe P. (13940)
Aircraft: BOEING 737-800
(B738)
More flights by this aircraft type
Origin: KSLC Salt Lake City Intl
United States
Destination: KPDX Portland Intl
United States
More flights between these airports :: More routes between these airports
Route: +CGULL1 TWF BROPH JOTBA HHOOD4
File this flight plan on PilotEdge
Remarks: RMK / SIMBRIEF / FLYING RW FLIGHT, 1 hour LATE . . .
Altitude:
(Current/Filed)
36,000ft
Speed:
(Current/Filed)
457kts
Departed: 01-Aug-20 03:27 PM
Arrived: 01-Aug-20 04:59 PM
Distance/Time
Traveled:
546nm/1:31
Distance/Time
To Go:
Arrived

Flight Plot

Page will automatically refresh every two minutes.


Map Options




Map Legend


Flown Route
Filed Route
Departure Airport
Arrival Airport
Navaid (VOR, NDB)
Fix

Horizontal Profiles

Position Reports

Time Latitude Longitude Heading Altitude Ground
Speed
01-Aug-20 14:25 40.788753 -111.981892 96 4235ft 0kts
01-Aug-20 14:26 40.788753 -111.981892 96 4235ft 0kts
01-Aug-20 14:27 40.788753 -111.981892 96 4235ft 0kts
01-Aug-20 14:28 40.788753 -111.981892 96 4235ft 0kts
01-Aug-20 14:29 40.788753 -111.981892 96 4235ft 0kts
01-Aug-20 14:30 40.788753 -111.981892 96 4235ft 0kts
01-Aug-20 14:31 40.788753 -111.981892 96 4235ft 0kts
01-Aug-20 14:32 40.788753 -111.981892 96 4235ft 0kts
01-Aug-20 14:33 40.788753 -111.981892 96 4235ft 0kts
01-Aug-20 14:34 40.788753 -111.981892 96 4235ft 0kts
01-Aug-20 14:35 40.788753 -111.981892 96 4235ft 0kts
01-Aug-20 14:36 40.788753 -111.981892 96 4235ft 0kts
01-Aug-20 14:37 40.788753 -111.981892 96 4235ft 0kts
01-Aug-20 14:38 40.788753 -111.981892 96 4235ft 0kts
01-Aug-20 14:39 40.788753 -111.981892 96 4235ft 0kts
01-Aug-20 14:40 40.788753 -111.981892 96 4235ft 0kts
01-Aug-20 14:41 40.788753 -111.981892 96 4235ft 0kts
01-Aug-20 14:42 40.788753 -111.981892 96 4235ft 0kts
01-Aug-20 14:43 40.788753 -111.981892 96 4235ft 0kts
01-Aug-20 14:44 40.788753 -111.981892 96 4235ft 0kts
01-Aug-20 14:45 40.788753 -111.981892 96 4235ft 0kts
01-Aug-20 14:46 40.788753 -111.981892 96 4235ft 0kts
01-Aug-20 14:47 40.788753 -111.981892 96 4235ft 0kts
01-Aug-20 14:48 40.788753 -111.981892 96 4235ft 0kts
01-Aug-20 14:49 40.788753 -111.981892 96 4235ft 0kts
01-Aug-20 14:50 40.788753 -111.981892 96 4235ft 0kts
01-Aug-20 14:51 40.788753 -111.981892 96 4235ft 0kts
01-Aug-20 14:52 40.788753 -111.981892 96 4235ft 0kts
01-Aug-20 14:53 40.788753 -111.981892 96 4235ft 0kts
01-Aug-20 14:54 40.788753 -111.981892 96 4235ft 0kts
01-Aug-20 14:55 40.788753 -111.981892 96 4235ft 0kts
01-Aug-20 14:56 40.788753 -111.981892 96 4235ft 0kts
01-Aug-20 14:57 40.788753 -111.981892 96 4235ft 0kts
01-Aug-20 14:58 40.788753 -111.981892 96 4235ft 0kts
01-Aug-20 14:59 40.788753 -111.981892 96 4235ft 0kts
01-Aug-20 15:00 40.788753 -111.981892 96 4235ft 0kts
01-Aug-20 15:01 40.788753 -111.981892 96 4235ft 0kts
01-Aug-20 15:02 40.788753 -111.981892 96 4235ft 0kts
01-Aug-20 15:03 40.788753 -111.981892 96 4235ft 0kts
01-Aug-20 15:04 40.788753 -111.981892 96 4235ft 0kts
01-Aug-20 15:05 40.788753 -111.981892 96 4235ft 0kts
01-Aug-20 15:06 40.788753 -111.981892 96 4235ft 0kts
01-Aug-20 15:07 40.788753 -111.981892 96 4235ft 0kts
01-Aug-20 15:08 40.788753 -111.981892 96 4235ft 0kts
01-Aug-20 15:09 40.788753 -111.981892 96 4235ft 0kts
01-Aug-20 15:10 40.788753 -111.981892 96 4235ft 0kts
01-Aug-20 15:11 40.788750 -111.982578 74 4235ft 2kts
01-Aug-20 15:12 40.788365 -111.982947 5 4235ft 0kts
01-Aug-20 15:13 40.788365 -111.982947 5 4235ft 0kts
01-Aug-20 15:14 40.788365 -111.982947 5 4235ft 0kts
01-Aug-20 15:15 40.788366 -111.982947 5 4235ft 0kts
01-Aug-20 15:16 40.788367 -111.982947 5 4235ft 0kts
01-Aug-20 15:17 40.788373 -111.982946 7 4235ft 0kts
01-Aug-20 15:18 40.789852 -111.981121 78 4235ft 12kts
01-Aug-20 15:19 40.790326 -111.978502 83 4235ft 0kts
01-Aug-20 15:20 40.788227 -111.976983 174 4235ft 18kts
01-Aug-20 15:21 40.782860 -111.976479 183 4235ft 11kts
01-Aug-20 15:22 40.778395 -111.975519 174 4235ft 17kts
01-Aug-20 15:23 40.774673 -111.975030 155 4235ft 3kts
01-Aug-20 15:24 40.774509 -111.974874 132 4235ft 2kts
01-Aug-20 15:25 40.775483 -111.973188 355 4235ft 2kts
01-Aug-20 15:26 40.781667 -111.973928 354 4235ft 101kts
01-Aug-20 15:27 40.825207 -111.978166 352 6179ft 164kts
01-Aug-20 15:28 40.877831 -111.986387 352 7594ft 229kts
01-Aug-20 15:29 40.935450 -112.031132 296 8816ft 277kts
01-Aug-20 15:30 40.968268 -112.131688 293 11169ft 317kts
01-Aug-20 15:31 41.008452 -112.248723 294 12967ft 366kts
01-Aug-20 15:32 41.051899 -112.374025 293 15679ft 379kts
01-Aug-20 15:33 41.126231 -112.473857 328 18223ft 397kts
01-Aug-20 15:34 41.217781 -112.558208 321 20628ft 406kts
01-Aug-20 15:35 41.304578 -112.656761 312 22736ft 415kts
01-Aug-20 15:36 41.382533 -112.772484 312 24563ft 424kts
01-Aug-20 15:37 41.461300 -112.891546 310 26253ft 431kts
01-Aug-20 15:38 41.540590 -113.013514 310 27781ft 438kts
01-Aug-20 15:39 41.620914 -113.137566 310 29160ft 445kts
01-Aug-20 15:41 41.702423 -113.262237 310 30868ft 440kts
01-Aug-20 15:42 41.782088 -113.385487 310 32578ft 435kts
01-Aug-20 15:43 41.860141 -113.506921 310 34318ft 426kts
01-Aug-20 15:44 41.937230 -113.627368 310 35746ft 423kts
01-Aug-20 15:45 42.013988 -113.747787 310 36101ft 424kts
01-Aug-20 15:46 42.090197 -113.867834 310 36101ft 421kts
01-Aug-20 15:47 42.166174 -113.988003 310 36102ft 421kts
01-Aug-20 15:48 42.242048 -114.108501 310 36105ft 421kts
01-Aug-20 15:49 42.317865 -114.228710 309 36107ft 420kts
01-Aug-20 15:50 42.393188 -114.349679 309 36108ft 420kts
01-Aug-20 15:51 42.468448 -114.470951 309 36109ft 420kts
01-Aug-20 15:52 42.544532 -114.591777 309 36109ft 420kts
01-Aug-20 15:53 42.619941 -114.712581 309 36108ft 419kts
01-Aug-20 15:54 42.695321 -114.834028 309 36105ft 419kts
01-Aug-20 15:55 42.763157 -114.962304 301 36110ft 418kts
01-Aug-20 15:56 42.825619 -115.096169 301 36103ft 418kts
01-Aug-20 15:56 42.877596 -115.207274 301 36092ft 418kts
01-Aug-20 15:58 42.951277 -115.363126 301 36074ft 418kts
01-Aug-20 15:59 43.013989 -115.496554 301 36056ft 418kts
01-Aug-20 15:59 43.065964 -115.607985 301 36043ft 418kts
01-Aug-20 16:00 43.128174 -115.742026 301 36036ft 417kts
01-Aug-20 16:01 43.190323 -115.876573 300 36036ft 416kts
01-Aug-20 16:03 43.262489 -116.033574 300 36045ft 417kts
01-Aug-20 16:03 43.313889 -116.145944 300 36051ft 417kts
01-Aug-20 16:04 43.375371 -116.280909 299 36045ft 416kts
01-Aug-20 16:05 43.436639 -116.416018 299 36030ft 417kts
01-Aug-20 16:06 43.497897 -116.551734 299 36015ft 417kts
01-Aug-20 16:07 43.558952 -116.687633 299 36000ft 417kts
01-Aug-20 16:08 43.619833 -116.823775 299 36002ft 417kts
01-Aug-20 16:09 43.680732 -116.960613 299 36002ft 418kts
01-Aug-20 16:10 43.741463 -117.097692 298 36001ft 418kts
01-Aug-20 16:11 43.802149 -117.235333 298 36000ft 418kts
01-Aug-20 16:12 43.862672 -117.373262 298 36003ft 419kts
01-Aug-20 16:13 43.923181 -117.511814 298 36009ft 419kts
01-Aug-20 16:14 43.983444 -117.650474 297 36024ft 420kts
01-Aug-20 16:15 44.043596 -117.789544 297 36052ft 419kts
01-Aug-20 16:16 44.103356 -117.928381 297 36080ft 419kts
01-Aug-20 16:17 44.163133 -118.067930 297 36099ft 419kts
01-Aug-20 16:18 44.222729 -118.207732 297 36111ft 419kts
01-Aug-20 16:19 44.281958 -118.347356 296 36119ft 418kts
01-Aug-20 16:20 44.341197 -118.487695 296 36123ft 418kts
01-Aug-20 16:21 44.399999 -118.627684 296 36123ft 418kts
01-Aug-20 16:22 44.458555 -118.767773 296 36127ft 417kts
01-Aug-20 16:23 44.516970 -118.908214 295 36128ft 417kts
01-Aug-20 16:24 44.575163 -119.048823 295 36129ft 417kts
01-Aug-20 16:25 44.633192 -119.189739 295 36121ft 417kts
01-Aug-20 16:26 44.690981 -119.330766 295 36118ft 417kts
01-Aug-20 16:27 44.748663 -119.472242 295 36108ft 416kts
01-Aug-20 16:28 44.806153 -119.613962 294 36099ft 416kts
01-Aug-20 16:29 44.863336 -119.755632 294 36090ft 412kts
01-Aug-20 16:30 44.919051 -119.894362 294 33742ft 413kts
01-Aug-20 16:31 44.974773 -120.033794 294 31732ft 403kts
01-Aug-20 16:32 45.029262 -120.169802 294 29901ft 393kts
01-Aug-20 16:33 45.081985 -120.303199 293 28107ft 383kts
01-Aug-20 16:34 45.133214 -120.433966 293 26326ft 375kts
01-Aug-20 16:35 45.183143 -120.561990 293 24569ft 368kts
01-Aug-20 16:36 45.231839 -120.688369 294 22821ft 362kts
01-Aug-20 16:37 45.280164 -120.812671 293 21089ft 356kts
01-Aug-20 16:38 45.326912 -120.935537 294 19389ft 350kts
01-Aug-20 16:39 45.372711 -121.056204 294 17694ft 344kts
01-Aug-20 16:40 45.417750 -121.174790 294 16281ft 333kts
01-Aug-20 16:41 45.447503 -121.296978 281 14579ft 330kts
01-Aug-20 16:42 45.471977 -121.422904 282 12990ft 308kts
01-Aug-20 16:43 45.494332 -121.534861 282 11831ft 285kts
01-Aug-20 16:44 45.513968 -121.635359 282 11266ft 244kts
01-Aug-20 16:45 45.530356 -121.729705 274 9641ft 254kts
01-Aug-20 16:46 45.533821 -121.829587 273 7751ft 239kts
01-Aug-20 16:47 45.536899 -121.919810 274 5999ft 209kts
01-Aug-20 16:48 45.540064 -121.992005 275 6208ft 195kts
01-Aug-20 16:49 45.530007 -122.068838 236 6270ft 211kts
01-Aug-20 16:50 45.494468 -122.137548 236 5578ft 215kts
01-Aug-20 16:51 45.473956 -122.208025 270 4116ft 193kts
01-Aug-20 16:52 45.471541 -122.280946 293 3911ft 185kts
01-Aug-20 16:53 45.496243 -122.343425 299 3503ft 175kts
01-Aug-20 16:54 45.518659 -122.400569 299 2645ft 152kts
01-Aug-20 16:55 45.538795 -122.452085 299 1832ft 147kts
01-Aug-20 16:56 45.558671 -122.502986 298 1082ft 143kts
01-Aug-20 16:57 45.577730 -122.552042 298 266ft 137kts
01-Aug-20 16:58 45.588864 -122.580550 300 26ft 11kts
01-Aug-20 16:59 45.590645 -122.588152 298 26ft 21kts
01-Aug-20 17:00 45.592141 -122.593274 279 26ft 8kts
01-Aug-20 17:01 45.591282 -122.594113 208 26ft 0kts
01-Aug-20 17:02 45.591282 -122.594113 208 26ft 0kts
01-Aug-20 17:03 45.591271 -122.594141 203 26ft 0kts
01-Aug-20 17:04 45.591270 -122.594141 203 26ft 0kts
01-Aug-20 17:05 45.591270 -122.594141 203 26ft 0kts
01-Aug-20 17:06 45.591270 -122.594141 203 26ft 0kts
01-Aug-20 17:07 45.591270 -122.594141 203 26ft 0kts
01-Aug-20 17:08 45.591270 -122.594141 203 26ft 0kts
01-Aug-20 17:09 45.591270 -122.594141 203 26ft 0kts
01-Aug-20 17:10 45.591270 -122.594141 203 26ft 0kts
01-Aug-20 17:11 45.591270 -122.594141 203 26ft 0kts
01-Aug-20 17:12 45.591270 -122.594141 203 26ft 0kts

Navigation Log

Ident Type
Flight plan parsing failed, navigation log unavailable